createdAt,value
2023-03-27T02:41:22.244Z,11.95
2023-03-27T02:42:47.871Z,10.98
2023-03-27T02:44:17.766Z,10.18
2023-03-27T02:45:49.599Z,13.05
2023-03-27T02:47:09.324Z,12.07
2023-03-27T02:48:34.557Z,12.68
2023-03-27T02:49:46.415Z,14.70
2023-03-27T02:51:01.839Z,12.38
2023-03-27T02:52:18.440Z,13.10
2023-03-27T02:53:25.238Z,9.77
2023-03-27T02:54:35.714Z,14.48
2023-03-27T02:55:45.399Z,15.55
2023-03-27T02:56:56.298Z,10.98
2023-03-27T02:58:10.372Z,15.57
2023-03-27T02:59:30.886Z,14.88
2023-03-27T03:00:39.635Z,12.68
2023-03-27T03:02:01.462Z,15.43
2023-03-27T03:03:27.803Z,13.43
2023-03-27T03:04:43.246Z,13.10
2023-03-27T03:05:52.151Z,10.70
2023-03-27T03:06:56.247Z,18.77
2023-03-27T03:07:59.046Z,19.40
2023-03-27T03:09:06.700Z,15.05
2023-03-27T03:10:14.014Z,16.02
2023-03-27T03:11:16.478Z,16.75
2023-03-27T03:12:18.887Z,16.25
2023-03-27T03:13:21.595Z,12.75
2023-03-27T03:14:40.154Z,11.63
2023-03-27T03:15:42.570Z,9.70
2023-03-27T03:16:47.476Z,20.90
2023-03-27T03:17:50.004Z,14.13
2023-03-27T03:18:52.755Z,17.08
2023-03-27T03:19:55.184Z,12.73
2023-03-27T03:20:57.859Z,12.18
2023-03-27T03:22:03.185Z,16.48
2023-03-27T03:23:09.413Z,14.45
2023-03-27T03:24:12.922Z,15.32
2023-03-27T03:25:18.365Z,16.33
2023-03-27T03:26:21.432Z,11.65
2023-03-27T03:27:24.067Z,12.77
2023-03-27T03:28:35.676Z,12.77
2023-03-27T03:29:38.228Z,16.00
2023-03-27T03:30:54.953Z,13.38
2023-03-27T03:32:02.724Z,14.50
2023-03-27T03:33:07.594Z,12.43
2023-03-27T03:34:19.110Z,14.43
2023-03-27T03:35:25.027Z,11.90
2023-03-27T03:36:31.101Z,11.02
2023-03-27T03:37:38.583Z,11.13
2023-03-27T03:38:43.226Z,14.60
2023-03-27T03:39:52.306Z,14.07
2023-03-27T03:40:56.584Z,11.25
2023-03-27T03:41:59.135Z,10.48
2023-03-27T03:43:03.784Z,14.93
2023-03-27T03:44:06.425Z,16.88
2023-03-27T03:45:09.393Z,14.82
2023-03-27T03:46:11.786Z,12.52
2023-03-27T03:47:18.133Z,11.70
2023-03-27T03:48:21.802Z,15.75
2023-03-27T03:49:24.692Z,15.15
2023-03-27T03:50:26.959Z,12.73
2023-03-27T03:51:31.337Z,13.30
2023-03-27T03:52:33.649Z,14.48
2023-03-27T03:53:36.463Z,10.82
2023-03-27T03:54:40.157Z,14.43
2023-03-27T03:55:44.068Z,15.75
2023-03-27T03:56:46.565Z,17.15
2023-03-27T03:57:50.149Z,18.20
2023-03-27T03:58:59.097Z,13.52
2023-03-27T04:00:02.335Z,12.70
2023-03-27T04:01:20.669Z,13.45
2023-03-27T04:02:29.846Z,19.05
2023-03-27T04:03:39.054Z,10.85
2023-03-27T04:04:43.770Z,12.82
2023-03-27T04:05:48.720Z,14.38
2023-03-27T04:06:51.299Z,13.55
2023-03-27T04:07:53.836Z,11.65
2023-03-27T04:09:26.625Z,12.27
2023-03-27T04:10:42.514Z,13.13
2023-03-27T04:11:54.326Z,9.70
2023-03-27T04:13:17.880Z,15.68
2023-03-27T04:14:38.892Z,14.45
2023-03-27T04:15:55.522Z,14.38
2023-03-27T04:17:10.181Z,16.38
2023-03-27T04:18:14.973Z,14.77
2023-03-27T04:19:19.763Z,16.63
2023-03-27T04:20:28.080Z,15.52
2023-03-27T04:21:31.768Z,18.60
2023-03-27T04:22:38.049Z,11.63
2023-03-27T04:23:45.670Z,13.10
2023-03-27T04:24:50.855Z,22.98
2023-03-27T04:26:00.167Z,11.70
2023-03-27T04:27:12.501Z,13.70
2023-03-27T04:28:37.054Z,16.38
2023-03-27T04:29:59.183Z,16.58
2023-03-27T04:31:30.931Z,11.02
2023-03-27T04:33:00.110Z,14.77
2023-03-27T04:34:38.319Z,9.13
2023-03-27T04:36:06.894Z,18.60
2023-03-27T04:37:30.469Z,12.55
2023-03-27T04:38:56.528Z,12.35
2023-03-27T04:40:00.275Z,14.55
2023-03-27T04:41:03.727Z,13.68
2023-03-27T04:42:06.503Z,17.60
2023-03-27T04:43:08.948Z,14.88
2023-03-27T04:44:11.519Z,18.33
2023-03-27T04:45:20.147Z,14.65
2023-03-27T04:46:24.431Z,15.23
2023-03-27T04:47:37.849Z,16.33
2023-03-27T04:48:40.918Z,13.52
2023-03-27T04:49:54.994Z,14.50
2023-03-27T04:51:03.158Z,20.15
2023-03-27T04:52:09.348Z,17.67
2023-03-27T04:53:12.533Z,16.27
2023-03-27T04:54:20.285Z,14.18
2023-03-27T04:55:25.789Z,14.73
2023-03-27T04:56:30.775Z,13.85
2023-03-27T04:57:34.695Z,15.15
2023-03-27T04:58:37.828Z,12.63
2023-03-27T04:59:46.186Z,12.32
2023-03-27T05:01:17.455Z,15.20
2023-03-27T05:02:38.255Z,17.95
2023-03-27T05:04:02.481Z,16.00
2023-03-27T05:05:16.913Z,12.32
2023-03-27T05:06:19.427Z,12.48
2023-03-27T05:07:22.504Z,14.98
2023-03-27T05:08:25.415Z,17.25
2023-03-27T05:09:27.760Z,15.77
2023-03-27T05:10:30.121Z,16.40
2023-03-27T05:11:32.668Z,11.73
2023-03-27T05:12:35.451Z,15.45
2023-03-27T05:13:38.624Z,13.48
2023-03-27T05:14:41.499Z,12.63
2023-03-27T05:15:59.114Z,9.70
2023-03-27T05:17:03.154Z,12.18
2023-03-27T05:18:07.211Z,15.07
2023-03-27T05:19:11.449Z,12.85
2023-03-27T05:20:23.468Z,12.80
2023-03-27T05:21:25.976Z,16.50
2023-03-27T05:22:28.365Z,12.93
2023-03-27T05:23:40.906Z,12.73
2023-03-27T05:24:43.923Z,12.88
2023-03-27T05:25:59.736Z,17.55
2023-03-27T05:27:13.009Z,13.50
2023-03-27T05:28:18.768Z,19.83
2023-03-27T05:29:22.779Z,16.75
2023-03-27T05:30:33.534Z,16.85
2023-03-27T05:32:02.442Z,17.52
2023-03-27T05:33:16.377Z,10.70
2023-03-27T05:34:20.964Z,16.48
2023-03-27T05:35:28.337Z,12.90
2023-03-27T05:36:32.990Z,16.35
2023-03-27T05:37:36.833Z,17.95
2023-03-27T05:38:58.209Z,15.73
2023-03-27T05:40:06.922Z,12.90
2023-03-27T05:41:12.737Z,13.57
2023-03-27T05:42:20.716Z,15.57
2023-03-27T05:43:23.155Z,16.30
2023-03-27T05:44:25.635Z,14.25
2023-03-27T05:45:28.627Z,14.20
2023-03-27T05:46:31.484Z,19.20
2023-03-27T05:47:50.604Z,17.23
2023-03-27T05:49:55.544Z,13.98
2023-03-27T05:50:58.321Z,15.85
2023-03-27T05:52:01.110Z,12.80
2023-03-27T05:53:10.044Z,14.88
2023-03-27T05:54:16.925Z,12.20
2023-03-27T05:55:30.618Z,12.40
2023-03-27T05:56:33.117Z,11.90
2023-03-27T05:57:39.710Z,13.35
2023-03-27T05:58:42.904Z,17.63
2023-03-27T05:59:45.269Z,17.67
2023-03-27T06:00:54.066Z,14.02
2023-03-27T06:01:58.825Z,19.17
2023-03-27T06:03:13.854Z,16.33
2023-03-27T06:04:35.354Z,18.48
2023-03-27T06:05:41.644Z,20.58
2023-03-27T06:06:45.372Z,10.23
2023-03-27T06:07:52.088Z,13.07
2023-03-27T06:08:55.440Z,13.15
2023-03-27T06:09:57.905Z,16.52
2023-03-27T06:11:18.356Z,14.30
2023-03-27T06:12:22.253Z,14.13
2023-03-27T06:13:28.572Z,11.30
2023-03-27T06:14:35.134Z,17.70
2023-03-27T06:15:57.433Z,23.45
2023-03-27T06:17:21.469Z,12.27
2023-03-27T06:18:28.965Z,15.52
2023-03-27T06:19:31.505Z,9.60
2023-03-27T06:20:35.451Z,14.90
2023-03-27T06:21:40.524Z,13.25
2023-03-27T06:22:52.087Z,15.15
2023-03-27T06:23:58.452Z,12.75
2023-03-27T06:25:05.742Z,11.35
2023-03-27T06:26:09.042Z,10.15
2023-03-27T06:27:11.461Z,16.88
2023-03-27T06:28:15.968Z,11.30
2023-03-27T06:29:24.757Z,17.95
2023-03-27T06:30:28.894Z,14.10
2023-03-27T06:31:51.141Z,14.70
2023-03-27T06:33:07.716Z,12.35
2023-03-27T06:34:12.807Z,15.23
2023-03-27T06:35:24.516Z,14.55
2023-03-27T06:36:34.911Z,14.48
2023-03-27T06:37:37.961Z,16.75
2023-03-27T06:38:41.057Z,13.95
2023-03-27T06:39:44.301Z,13.57
2023-03-27T06:40:46.887Z,12.88
2023-03-27T06:41:50.588Z,12.27
2023-03-27T06:43:12.018Z,18.40
2023-03-27T06:44:24.337Z,16.40
2023-03-27T06:45:50.788Z,17.00
2023-03-27T06:48:34.044Z,11.52
2023-03-27T06:49:39.440Z,15.38
2023-03-27T06:50:52.310Z,11.38
2023-03-27T06:51:55.333Z,15.80
2023-03-27T06:52:59.351Z,11.52
2023-03-27T06:54:17.138Z,15.68
2023-03-27T06:55:26.358Z,14.65
2023-03-27T06:56:29.787Z,11.80
2023-03-27T06:57:55.112Z,14.68
2023-03-27T06:58:57.445Z,10.63
2023-03-27T07:00:19.806Z,13.40
2023-03-27T07:01:46.249Z,10.13
2023-03-27T07:03:01.224Z,13.13
2023-03-27T07:04:39.222Z,13.05
2023-03-27T07:05:49.815Z,14.40
2023-03-27T07:06:52.461Z,16.27
2023-03-27T07:07:57.444Z,14.13
2023-03-27T07:09:03.856Z,14.93
2023-03-27T07:10:09.020Z,14.80
2023-03-27T07:11:12.673Z,16.25
2023-03-27T07:12:47.608Z,13.55
2023-03-27T07:13:52.116Z,13.60
2023-03-27T07:15:06.089Z,12.77
2023-03-27T07:16:12.436Z,15.05
2023-03-27T07:17:15.068Z,11.30
2023-03-27T07:18:23.650Z,16.50
2023-03-27T07:19:30.730Z,13.25
2023-03-27T07:20:43.392Z,14.10
2023-03-27T07:21:50.186Z,14.88
2023-03-27T07:22:53.676Z,14.57
2023-03-27T07:24:07.455Z,15.98
2023-03-27T07:25:12.921Z,14.05
2023-03-27T07:26:18.434Z,14.15
2023-03-27T07:27:33.986Z,15.73
2023-03-27T07:28:38.894Z,11.05
2023-03-27T07:29:45.998Z,13.95
2023-03-27T07:30:56.273Z,12.15
2023-03-27T07:32:02.830Z,14.73
2023-03-27T07:33:18.695Z,10.23
2023-03-27T07:34:21.535Z,13.63
2023-03-27T07:35:47.462Z,12.43
2023-03-27T07:37:08.367Z,12.25
2023-03-27T07:38:15.037Z,12.75
2023-03-27T07:39:17.825Z,12.95
2023-03-27T07:40:29.335Z,10.65
2023-03-27T07:41:56.121Z,13.20
2023-03-27T07:43:13.597Z,16.35
2023-03-27T07:44:20.288Z,11.77
2023-03-27T07:45:34.785Z,11.73
2023-03-27T07:46:37.968Z,10.75
2023-03-27T07:47:41.595Z,16.30
2023-03-27T07:48:45.443Z,14.45
2023-03-27T07:49:52.080Z,16.42
2023-03-27T07:52:09.168Z,13.13
2023-03-27T07:53:33.610Z,14.88
2023-03-27T07:54:45.201Z,12.57
2023-03-27T07:55:52.266Z,11.25
2023-03-27T07:56:54.588Z,12.95
2023-03-27T07:58:09.012Z,12.60
2023-03-27T07:59:13.727Z,11.77
2023-03-27T08:00:17.950Z,9.75
2023-03-27T08:01:27.775Z,12.00
2023-03-27T08:02:30.661Z,13.25
2023-03-27T08:03:33.380Z,11.13
2023-03-27T08:04:37.004Z,14.45
2023-03-27T08:05:41.830Z,10.68
2023-03-27T08:06:47.213Z,10.45
2023-03-27T08:07:56.063Z,10.55
2023-03-27T08:09:18.055Z,12.63
2023-03-27T08:10:21.784Z,9.23
2023-03-27T08:11:33.347Z,10.02
2023-03-27T08:12:36.134Z,9.57
2023-03-27T08:13:39.672Z,7.63
2023-03-27T08:14:45.650Z,11.30
2023-03-27T08:16:13.205Z,15.70
2023-03-27T08:17:17.708Z,13.00
2023-03-27T08:18:21.952Z,15.85
2023-03-27T08:19:25.185Z,15.60
2023-03-27T08:20:33.944Z,13.80
2023-03-27T08:21:36.503Z,9.18
2023-03-27T08:22:39.470Z,15.45
2023-03-27T08:25:12.693Z,8.82
2023-03-27T08:26:16.051Z,8.93
2023-03-27T08:27:28.060Z,15.25
2023-03-27T08:28:32.576Z,10.40
2023-03-27T08:29:34.875Z,10.48
2023-03-27T08:30:37.759Z,13.65
2023-03-27T08:31:40.976Z,13.13
2023-03-27T08:32:44.182Z,12.25
2023-03-27T08:33:47.248Z,11.32
2023-03-27T08:34:57.039Z,11.88
2023-03-27T08:35:59.867Z,11.40
2023-03-27T08:37:03.953Z,11.10
2023-03-27T08:38:26.275Z,11.55
2023-03-27T08:39:39.499Z,9.80
2023-03-27T08:40:48.257Z,12.25
2023-03-27T08:42:06.841Z,14.43
2023-03-27T08:43:17.695Z,14.43
2023-03-27T08:44:23.877Z,11.43
2023-03-27T08:45:32.371Z,16.30
2023-03-27T08:47:05.587Z,15.40
2023-03-27T08:48:22.199Z,15.82
2023-03-27T08:49:28.601Z,15.07
2023-03-27T08:51:05.191Z,15.88
2023-03-27T08:52:15.630Z,10.27
2023-03-27T08:53:40.997Z,9.80
2023-03-27T08:54:53.538Z,11.50
2023-03-27T08:56:05.174Z,14.23
2023-03-27T08:57:24.445Z,8.45
2023-03-27T08:58:34.513Z,11.43
2023-03-27T08:59:59.941Z,11.18
2023-03-27T09:01:09.519Z,14.70
2023-03-27T09:02:36.546Z,11.00
2023-03-27T09:03:59.936Z,9.38
2023-03-27T09:05:14.777Z,8.75
2023-03-27T09:06:26.960Z,13.23
2023-03-27T09:07:50.125Z,13.30
2023-03-27T09:09:29.402Z,10.20
2023-03-27T09:10:49.630Z,10.07
2023-03-27T09:12:37.410Z,10.70
2023-03-27T09:13:45.834Z,12.35
2023-03-27T09:15:22.087Z,8.52
2023-03-27T09:16:38.066Z,12.57
2023-03-27T09:17:52.646Z,11.60
2023-03-27T09:19:20.313Z,10.25
2023-03-27T09:20:32.339Z,11.82
2023-03-27T09:21:45.021Z,9.93
2023-03-27T09:23:01.286Z,11.23
2023-03-27T09:24:48.557Z,9.75
2023-03-27T09:26:21.781Z,9.18
2023-03-27T09:27:43.281Z,9.48
2023-03-27T09:29:20.665Z,10.32
2023-03-27T09:30:33.733Z,12.70
2023-03-27T09:31:53.112Z,9.30
2023-03-27T09:33:03.738Z,11.27
2023-03-27T09:34:12.948Z,14.60
2023-03-27T09:35:18.029Z,10.05
2023-03-27T09:36:21.878Z,11.15
2023-03-27T09:37:27.585Z,14.50
2023-03-27T09:38:37.772Z,10.43
2023-03-27T09:39:48.446Z,8.60
2023-03-27T09:41:03.207Z,6.72
2023-03-27T09:42:17.332Z,7.38
2023-03-27T09:43:26.362Z,8.52
2023-03-27T09:44:41.448Z,10.75
2023-03-27T09:45:45.140Z,15.07
2023-03-27T09:46:56.895Z,12.07
2023-03-27T09:48:05.309Z,12.95
2023-03-27T09:49:19.880Z,9.68
2023-03-27T09:50:41.383Z,10.48
2023-03-27T09:51:54.508Z,14.75
2023-03-27T09:53:23.000Z,9.43
2023-03-27T09:54:53.942Z,12.00
2023-03-27T09:56:14.450Z,10.52
2023-03-27T09:57:21.363Z,12.50
2023-03-27T09:58:27.796Z,9.35
2023-03-27T09:59:54.801Z,8.40
2023-03-27T10:01:09.323Z,12.52
2023-03-27T10:02:22.727Z,13.68
2023-03-27T10:03:25.660Z,8.68
2023-03-27T10:04:33.058Z,9.80
2023-03-27T10:05:38.904Z,9.05
2023-03-27T10:07:06.798Z,11.32
2023-03-27T10:08:37.856Z,8.27
2023-03-27T10:09:44.092Z,11.10
2023-03-27T10:10:56.032Z,9.07
2023-03-27T10:12:19.713Z,9.02
2023-03-27T10:13:27.280Z,6.18
2023-03-27T10:14:34.441Z,11.23
2023-03-27T10:15:38.849Z,9.18
2023-03-27T10:16:46.159Z,10.05
2023-03-27T10:17:49.294Z,7.88
2023-03-27T10:18:56.967Z,11.52
2023-03-27T10:20:13.390Z,11.57
2023-03-27T10:21:31.747Z,14.68
2023-03-27T10:22:40.002Z,7.22
2023-03-27T10:23:46.394Z,9.07
2023-03-27T10:25:22.689Z,6.03
2023-03-27T10:26:39.457Z,8.30
2023-03-27T10:27:43.706Z,6.28
2023-03-27T10:29:31.951Z,8.52
2023-03-27T10:30:37.907Z,10.02
2023-03-27T10:32:04.260Z,8.63
2023-03-27T10:33:39.845Z,8.77
2023-03-27T10:35:21.391Z,7.70
2023-03-27T10:36:57.325Z,7.10
2023-03-27T10:38:07.439Z,6.35
2023-03-27T10:39:27.749Z,7.50
2023-03-27T10:40:43.827Z,8.32
2023-03-27T10:41:51.591Z,5.78
2023-03-27T10:42:59.408Z,9.73
2023-03-27T10:44:06.943Z,7.20
2023-03-27T10:45:16.526Z,8.45
2023-03-27T10:46:23.082Z,9.70
2023-03-27T10:47:30.859Z,9.68
2023-03-27T10:49:04.378Z,8.55
2023-03-27T10:51:46.865Z,8.27
2023-03-27T10:53:20.523Z,6.68
2023-03-27T10:54:39.766Z,5.82
2023-03-27T10:56:10.725Z,15.00
2023-03-27T10:57:19.705Z,6.57
2023-03-27T10:58:33.801Z,7.80
2023-03-27T10:59:53.908Z,6.50
2023-03-27T11:01:26.253Z,9.73
2023-03-27T11:02:39.817Z,7.63
2023-03-27T11:04:01.873Z,7.82
2023-03-27T11:05:15.484Z,8.45
2023-03-27T11:07:37.884Z,9.18
2023-03-27T11:08:42.408Z,8.13
2023-03-27T11:09:56.414Z,10.15
2023-03-27T11:11:15.569Z,11.88
2023-03-27T11:12:23.740Z,8.45
2023-03-27T11:13:32.410Z,8.98
2023-03-27T11:15:17.201Z,9.20
2023-03-27T11:16:35.009Z,10.15
2023-03-27T11:18:10.657Z,11.27
2023-03-27T11:19:44.943Z,8.40
2023-03-27T11:21:12.704Z,11.10
2023-03-27T11:22:32.855Z,8.13
2023-03-27T11:23:56.530Z,10.07
2023-03-27T11:25:32.489Z,7.20
2023-03-27T11:26:50.566Z,7.28
2023-03-27T11:28:14.083Z,6.57
2023-03-27T11:29:25.483Z,5.95
2023-03-27T11:30:38.271Z,8.85
2023-03-27T11:31:46.691Z,7.70
2023-03-27T11:33:09.552Z,6.28
2023-03-27T11:34:29.806Z,5.78
2023-03-27T11:35:50.182Z,9.13
2023-03-27T11:37:38.240Z,7.60
2023-03-27T11:38:47.036Z,9.70
2023-03-27T11:39:59.570Z,8.40
2023-03-27T11:42:16.178Z,9.52
2023-03-27T11:43:20.521Z,6.95
2023-03-27T11:44:25.443Z,5.45
2023-03-27T11:46:11.641Z,8.30
2023-03-27T11:47:58.245Z,8.13
2023-03-27T11:49:32.387Z,10.60
2023-03-27T11:50:41.193Z,5.95
2023-03-27T11:51:47.210Z,6.35
2023-03-27T11:53:08.290Z,9.00
2023-03-27T11:54:55.388Z,6.78
2023-03-27T11:56:26.804Z,7.97
2023-03-27T11:57:52.132Z,7.10
2023-03-27T11:59:28.346Z,9.88
2023-03-27T12:00:45.064Z,6.13
2023-03-27T12:01:55.944Z,7.78
2023-03-27T12:03:12.495Z,6.95
2023-03-27T12:04:36.691Z,7.20
2023-03-27T12:06:06.664Z,11.63
2023-03-27T12:07:35.951Z,6.40
2023-03-27T12:09:22.248Z,5.97
2023-03-27T12:10:48.806Z,6.68
2023-03-27T12:12:38.040Z,5.68
2023-03-27T12:14:31.015Z,7.30
2023-03-27T12:16:06.506Z,6.55
2023-03-27T12:17:47.830Z,5.53
2023-03-27T12:19:13.717Z,6.65
2023-03-27T12:20:33.269Z,4.95
2023-03-27T12:21:58.419Z,3.75
2023-03-27T12:23:18.442Z,7.18
2023-03-27T12:25:21.434Z,6.70
2023-03-27T12:27:11.050Z,6.72
2023-03-27T12:28:46.656Z,6.20
2023-03-27T12:30:14.160Z,5.65
2023-03-27T12:31:52.783Z,7.22
2023-03-27T12:33:20.004Z,9.02
2023-03-27T12:34:50.203Z,3.83
2023-03-27T12:35:57.923Z,9.40
2023-03-27T12:37:01.797Z,8.43
2023-03-27T12:38:14.179Z,5.07
2023-03-27T12:40:37.924Z,8.45
2023-03-27T12:41:45.300Z,6.10
2023-03-27T12:43:11.541Z,7.38
2023-03-27T12:44:17.166Z,5.55
2023-03-27T12:45:27.004Z,6.55
2023-03-27T12:46:35.425Z,6.00
2023-03-27T12:47:37.764Z,8.20
2023-03-27T12:49:02.137Z,7.03
2023-03-27T12:50:18.114Z,6.35
2023-03-27T12:52:04.214Z,6.38
2023-03-27T12:53:35.677Z,9.45
2023-03-27T12:55:06.168Z,13.25
2023-03-27T12:56:33.693Z,12.15
2023-03-27T12:57:46.603Z,11.65
2023-03-27T12:58:55.241Z,8.77
2023-03-27T13:00:25.729Z,8.70
2023-03-27T13:01:45.554Z,10.00
2023-03-27T13:03:27.480Z,7.68
2023-03-27T13:04:38.936Z,9.93
2023-03-27T13:05:47.971Z,11.55
2023-03-27T13:07:12.778Z,7.55
2023-03-27T13:08:48.567Z,3.40
2023-03-27T13:12:02.679Z,6.05
2023-03-27T13:13:45.622Z,10.88
2023-03-27T13:15:11.605Z,6.85
2023-03-27T13:16:20.050Z,5.28
2023-03-27T13:17:51.415Z,6.25
2023-03-27T13:19:27.332Z,8.23
2023-03-27T13:21:08.683Z,5.30
2023-03-27T13:22:37.402Z,8.80
2023-03-27T13:23:51.577Z,8.20
2023-03-27T13:25:13.342Z,8.88
2023-03-27T13:26:15.715Z,6.28
2023-03-27T13:27:40.671Z,6.25
2023-03-27T13:28:53.007Z,7.25
2023-03-27T13:29:56.091Z,8.18
2023-03-27T13:31:11.042Z,8.75
2023-03-27T13:32:40.268Z,9.60
2023-03-27T13:34:13.631Z,12.50
2023-03-27T13:35:17.303Z,6.53
2023-03-27T13:36:23.046Z,7.20
2023-03-27T13:37:36.900Z,6.63
2023-03-27T13:39:08.318Z,11.32
2023-03-27T13:40:24.195Z,11.90
2023-03-27T13:41:44.469Z,6.57
2023-03-27T13:43:21.976Z,8.38
2023-03-27T13:44:51.021Z,6.65
2023-03-27T13:46:05.358Z,11.80
2023-03-27T13:47:34.927Z,7.88
2023-03-27T13:48:43.324Z,6.28
2023-03-27T13:50:14.123Z,10.52
2023-03-27T13:51:34.158Z,6.72
2023-03-27T13:53:12.635Z,6.57
2023-03-27T13:55:00.735Z,8.90
2023-03-27T13:56:41.322Z,7.63
2023-03-27T13:57:58.439Z,11.73
2023-03-27T13:59:22.173Z,8.35
2023-03-27T14:00:38.370Z,8.52
2023-03-27T14:02:38.985Z,8.10
2023-03-27T14:03:48.559Z,7.75
2023-03-27T14:05:12.707Z,9.85
2023-03-27T14:06:28.794Z,8.10
2023-03-27T14:07:52.414Z,7.40
2023-03-27T14:09:15.467Z,6.85
2023-03-27T14:10:54.602Z,6.28
2023-03-27T14:12:34.503Z,7.97
2023-03-27T14:14:14.266Z,3.60
2023-03-27T14:15:27.846Z,5.10
2023-03-27T14:17:05.978Z,2.53
2023-03-27T14:18:39.301Z,2.50
2023-03-27T14:19:53.419Z,1.30
2023-03-27T14:21:02.158Z,2.42
2023-03-27T14:22:19.848Z,2.25
2023-03-27T14:23:34.918Z,4.13
2023-03-27T14:25:04.834Z,3.95
2023-03-27T14:26:24.619Z,4.13
2023-03-27T14:27:30.605Z,3.47
2023-03-27T14:28:49.322Z,1.83
2023-03-27T14:30:26.246Z,5.22
2023-03-27T14:31:44.683Z,1.45
2023-03-27T14:33:09.826Z,5.15
2023-03-27T14:34:22.312Z,1.80
2023-03-27T14:35:29.356Z,3.38
2023-03-27T14:36:49.753Z,1.23
2023-03-27T14:38:01.141Z,5.05
2023-03-27T14:39:22.280Z,2.90
2023-03-27T14:40:36.660Z,2.05
2023-03-27T14:41:56.166Z,3.00
2023-03-27T14:43:01.008Z,5.63
2023-03-27T14:44:04.782Z,5.13
2023-03-27T14:45:27.310Z,2.90
2023-03-27T14:46:31.178Z,2.25
2023-03-27T14:47:36.202Z,4.95
2023-03-27T14:48:42.423Z,3.30
2023-03-27T14:49:51.383Z,3.92
2023-03-27T14:51:15.620Z,6.00
2023-03-27T14:52:33.325Z,4.93
2023-03-27T14:54:02.856Z,5.82
2023-03-27T14:55:18.067Z,4.50
2023-03-27T14:56:37.413Z,6.28
2023-03-27T14:58:10.880Z,5.88
2023-03-27T14:59:21.324Z,6.97
2023-03-27T15:00:32.074Z,5.50
2023-03-27T15:01:35.150Z,5.25
2023-03-27T15:02:39.246Z,7.43
2023-03-27T15:03:45.942Z,6.93
2023-03-27T15:04:48.648Z,4.32
2023-03-27T15:06:26.400Z,3.72
2023-03-27T15:07:34.989Z,4.47
2023-03-27T15:09:16.053Z,4.63
2023-03-27T15:10:37.240Z,2.83
2023-03-27T15:11:48.186Z,3.08
2023-03-27T15:12:55.915Z,3.78
2023-03-27T15:13:58.254Z,3.58
2023-03-27T15:15:16.951Z,2.80
2023-03-27T15:16:24.643Z,3.83
2023-03-27T15:17:30.416Z,2.38
2023-03-27T15:18:50.804Z,3.33
2023-03-27T15:20:10.258Z,5.68
2023-03-27T15:21:26.149Z,3.38
2023-03-27T15:22:33.641Z,6.03
2023-03-27T15:23:45.468Z,4.90
2023-03-27T15:24:52.994Z,5.05
2023-03-27T15:26:06.858Z,3.78
2023-03-27T15:27:23.084Z,3.00
2023-03-27T15:28:33.848Z,4.88
2023-03-27T15:29:42.519Z,2.55
2023-03-27T15:30:53.850Z,6.10
2023-03-27T15:31:59.730Z,3.15
2023-03-27T15:33:04.190Z,3.17
2023-03-27T15:34:35.028Z,2.60
2023-03-27T15:35:41.866Z,1.60
2023-03-27T15:36:54.862Z,3.47
2023-03-27T15:37:57.976Z,4.10
2023-03-27T15:39:01.884Z,2.90
2023-03-27T15:40:51.451Z,3.53
2023-03-27T15:42:02.599Z,2.53
2023-03-27T15:43:13.876Z,3.38
2023-03-27T15:44:18.977Z,3.58
2023-03-27T15:45:34.097Z,4.03
2023-03-27T15:46:53.885Z,4.45
2023-03-27T15:48:00.934Z,2.78
2023-03-27T15:49:28.574Z,2.45
2023-03-27T15:50:31.285Z,1.90
2023-03-27T15:51:34.213Z,2.35
2023-03-27T15:52:36.431Z,2.95
2023-03-27T15:53:45.026Z,2.42
2023-03-27T15:54:54.564Z,2.92
2023-03-27T15:55:57.692Z,3.25
2023-03-27T15:57:11.553Z,2.78
2023-03-27T15:58:30.344Z,4.30
2023-03-27T15:59:33.880Z,2.85
2023-03-27T16:00:36.273Z,2.28
2023-03-27T16:01:42.111Z,3.95
2023-03-27T16:02:47.755Z,2.30
2023-03-27T16:03:51.281Z,5.50
2023-03-27T16:04:58.087Z,3.20
2023-03-27T16:06:02.615Z,2.80
2023-03-27T16:07:27.351Z,2.78
2023-03-27T16:08:36.454Z,3.80
2023-03-27T16:09:59.708Z,4.05
2023-03-27T16:12:06.450Z,3.72
2023-03-27T16:13:25.303Z,3.40
2023-03-27T16:14:40.715Z,5.05
2023-03-27T16:15:57.896Z,3.95
2023-03-27T16:17:10.028Z,2.95
2023-03-27T16:18:25.683Z,3.05
2023-03-27T16:19:28.073Z,3.13
2023-03-27T16:20:33.454Z,4.40
2023-03-27T16:21:36.240Z,4.93
2023-03-27T16:22:39.412Z,5.97
2023-03-27T16:23:42.269Z,2.90
2023-03-27T16:24:44.554Z,3.28
2023-03-27T16:25:46.904Z,3.70
2023-03-27T16:26:50.632Z,3.85
2023-03-27T16:27:56.937Z,2.97
2023-03-27T16:29:04.556Z,4.30
2023-03-27T16:30:09.850Z,2.95
2023-03-27T16:31:14.914Z,3.28
2023-03-27T16:32:18.739Z,4.85
2023-03-27T16:33:22.707Z,3.92
2023-03-27T16:34:25.370Z,3.35
2023-03-27T16:35:31.025Z,4.90
2023-03-27T16:36:33.650Z,3.05
2023-03-27T16:37:35.946Z,2.83
2023-03-27T16:38:46.300Z,3.92
2023-03-27T16:39:49.884Z,3.17
2023-03-27T16:40:52.400Z,2.83
2023-03-27T16:41:54.760Z,3.95
2023-03-27T16:42:57.189Z,3.45
2023-03-27T16:43:59.743Z,2.83
2023-03-27T16:45:02.453Z,2.72
2023-03-27T16:46:05.889Z,2.95
2023-03-27T16:47:08.638Z,5.20
2023-03-27T16:48:11.600Z,3.63
2023-03-27T16:49:15.008Z,5.70
2023-03-27T16:50:21.740Z,4.10
2023-03-27T16:51:27.439Z,5.32
2023-03-27T16:52:30.023Z,3.25
2023-03-27T16:53:32.354Z,6.43
2023-03-27T16:54:34.667Z,3.58
2023-03-27T16:55:36.919Z,3.75
2023-03-27T16:56:39.281Z,4.07
2023-03-27T16:57:42.508Z,4.05
2023-03-27T16:58:44.952Z,4.85
2023-03-27T16:59:47.232Z,6.55
2023-03-27T17:00:49.647Z,4.85
2023-03-27T17:01:52.022Z,4.70
2023-03-27T17:02:54.304Z,9.32
2023-03-27T17:03:57.017Z,6.13
2023-03-27T17:04:59.324Z,6.75
2023-03-27T17:06:02.709Z,13.00
2023-03-27T17:07:06.214Z,11.00
2023-03-27T17:08:08.820Z,5.57
2023-03-27T17:09:12.493Z,6.35
2023-03-27T17:10:18.229Z,5.97
2023-03-27T17:11:21.785Z,6.18
2023-03-27T17:12:24.734Z,4.72
2023-03-27T17:13:27.370Z,3.28
2023-03-27T17:14:29.796Z,3.17
2023-03-27T17:15:36.095Z,3.90
2023-03-27T17:16:38.757Z,6.97
2023-03-27T17:17:41.419Z,4.97
2023-03-27T17:18:44.284Z,6.60
2023-03-27T17:19:46.905Z,4.20
2023-03-27T17:20:49.313Z,8.05
2023-03-27T17:21:51.771Z,8.40
2023-03-27T17:22:54.127Z,5.07
2023-03-27T17:23:58.281Z,5.22
2023-03-27T17:25:02.404Z,8.20
2023-03-27T17:26:05.245Z,4.50
2023-03-27T17:27:07.646Z,5.20
2023-03-27T17:28:10.695Z,5.22
2023-03-27T17:29:13.207Z,4.93
2023-03-27T17:30:30.613Z,3.38
2023-03-27T17:31:39.892Z,6.47
2023-03-27T17:32:42.776Z,8.13
2023-03-27T17:33:45.425Z,5.60
2023-03-27T17:34:48.853Z,6.70
2023-03-27T17:35:51.213Z,7.25
2023-03-27T17:36:54.874Z,3.88
2023-03-27T17:37:57.278Z,3.70
2023-03-27T17:39:02.665Z,8.32
2023-03-27T17:40:09.839Z,9.68
2023-03-27T17:41:14.484Z,5.22
2023-03-27T17:42:17.406Z,23.77
2023-03-27T17:43:19.964Z,9.50
2023-03-27T17:44:22.442Z,6.53
2023-03-27T17:45:24.798Z,7.28
2023-03-27T17:46:27.272Z,6.07
2023-03-27T17:47:29.659Z,6.32
2023-03-27T17:48:36.178Z,8.73
2023-03-27T17:49:38.657Z,6.05
2023-03-27T17:50:41.024Z,5.85
2023-03-27T17:51:43.419Z,6.47
2023-03-27T17:52:45.941Z,4.50
2023-03-27T17:53:48.427Z,6.32
2023-03-27T17:54:51.519Z,5.63
2023-03-27T17:55:53.927Z,6.95
2023-03-27T17:56:56.391Z,5.25
2023-03-27T18:04:31.119Z,5.97
2023-03-27T18:05:38.316Z,10.23
2023-03-27T18:06:41.000Z,7.25
2023-03-27T18:07:43.739Z,5.13
2023-03-27T18:08:46.865Z,6.93
2023-03-27T18:09:49.565Z,7.68
2023-03-27T18:10:52.647Z,8.52
2023-03-27T18:11:55.720Z,6.22
2023-03-27T18:12:58.187Z,12.82
2023-03-27T18:14:01.377Z,4.75
2023-03-27T18:15:07.525Z,3.00
2023-03-27T18:16:13.288Z,5.22
2023-03-27T18:17:17.799Z,7.63
2023-03-27T18:18:20.328Z,4.32
2023-03-27T18:19:25.104Z,4.72
2023-03-27T18:20:27.597Z,6.28
2023-03-27T18:21:30.364Z,7.13
2023-03-27T18:22:32.861Z,4.20
2023-03-27T19:26:10.976Z,3.10
2023-03-27T19:27:24.060Z,4.68
2023-03-27T19:45:29.670Z,4.90
2023-03-27T19:46:32.071Z,4.65
2023-03-27T19:47:34.729Z,2.72
2023-03-27T19:48:37.738Z,2.85
2023-03-27T19:49:45.792Z,3.42
2023-03-27T19:51:03.800Z,5.30
2023-03-27T19:52:19.829Z,2.50
2023-03-27T19:53:22.731Z,5.18
2023-03-27T19:54:24.996Z,3.53
2023-03-27T19:55:27.497Z,2.80
2023-03-27T19:56:29.700Z,4.72
2023-03-27T19:57:31.937Z,3.88
2023-03-27T19:58:34.377Z,2.15
2023-03-27T19:59:36.612Z,4.90
2023-03-27T20:00:39.000Z,3.05
2023-03-27T20:01:44.240Z,4.53
2023-03-27T20:02:46.730Z,4.05
2023-03-27T20:03:49.216Z,2.85
2023-03-27T20:04:51.578Z,3.08
2023-03-27T20:05:56.086Z,5.55
2023-03-27T20:07:10.313Z,4.57
2023-03-27T20:08:12.584Z,3.63
2023-03-27T20:09:14.913Z,8.80
2023-03-27T20:10:17.182Z,6.47